sensor_id;sensor_type;location;lat;lon;timestamp;pressure;altitude;pressure_sealevel;temperature;humidity
62942;BME280;49042;47.318;19.874;2023-04-09T00:01:35;101073.12;;;1.84;100.00
62942;BME280;49042;47.318;19.874;2023-04-09T00:04:37;101068.94;;;2.08;100.00
62942;BME280;49042;47.318;19.874;2023-04-09T00:07:39;101072.22;;;1.95;100.00
62942;BME280;49042;47.318;19.874;2023-04-09T00:10:42;101077.06;;;1.68;100.00
62942;BME280;49042;47.318;19.874;2023-04-09T00:13:44;101072.62;;;1.55;100.00
62942;BME280;49042;47.318;19.874;2023-04-09T00:16:46;101067.59;;;1.56;100.00
62942;BME280;49042;47.318;19.874;2023-04-09T00:19:47;101069.16;;;1.54;100.00
62942;BME280;49042;47.318;19.874;2023-04-09T00:22:49;101072.97;;;1.59;100.00
62942;BME280;49042;47.318;19.874;2023-04-09T00:25:52;101072.91;;;1.70;100.00
62942;BME280;49042;47.318;19.874;2023-04-09T00:28:54;101077.50;;;1.62;100.00
62942;BME280;49042;47.318;19.874;2023-04-09T00:31:56;101075.97;;;1.54;100.00
62942;BME280;49042;47.318;19.874;2023-04-09T00:34:57;101076.66;;;1.51;100.00
62942;BME280;49042;47.318;19.874;2023-04-09T00:37:59;101077.87;;;1.56;100.00
62942;BME280;49042;47.318;19.874;2023-04-09T00:41:01;101082.13;;;1.56;100.00
62942;BME280;49042;47.318;19.874;2023-04-09T00:44:03;101072.75;;;1.56;100.00
62942;BME280;49042;47.318;19.874;2023-04-09T00:47:04;101076.75;;;1.53;100.00
62942;BME280;49042;47.318;19.874;2023-04-09T00:50:07;101071.25;;;1.48;100.00
62942;BME280;49042;47.318;19.874;2023-04-09T00:53:09;101075.59;;;1.49;100.00
62942;BME280;49042;47.318;19.874;2023-04-09T00:56:14;101073.94;;;1.49;100.00
62942;BME280;49042;47.318;19.874;2023-04-09T00:59:18;101075.22;;;1.55;100.00
62942;BME280;49042;47.318;19.874;2023-04-09T01:02:19;101071.97;;;1.57;100.00
62942;BME280;49042;47.318;19.874;2023-04-09T01:05:23;101066.53;;;1.65;100.00
62942;BME280;49042;47.318;19.874;2023-04-09T01:15:09;101065.47;;;1.73;100.00
62942;BME280;49042;47.318;19.874;2023-04-09T01:18:35;101067.13;;;1.73;100.00
62942;BME280;49042;47.318;19.874;2023-04-09T01:21:39;101060.56;;;1.76;100.00
62942;BME280;49042;47.318;19.874;2023-04-09T01:25:02;101062.47;;;1.79;100.00
62942;BME280;49042;47.318;19.874;2023-04-09T01:31:15;101059.44;;;1.85;100.00
62942;BME280;49042;47.318;19.874;2023-04-09T01:34:18;101069.50;;;1.81;100.00
62942;BME280;49042;47.318;19.874;2023-04-09T01:37:21;101068.06;;;1.85;100.00
62942;BME280;49042;47.318;19.874;2023-04-09T01:40:24;101067.84;;;1.82;100.00
62942;BME280;49042;47.318;19.874;2023-04-09T01:43:26;101064.59;;;1.85;100.00
62942;BME280;49042;47.318;19.874;2023-04-09T01:46:28;101073.44;;;1.88;100.00
62942;BME280;49042;47.318;19.874;2023-04-09T01:49:30;101076.47;;;1.95;100.00
62942;BME280;49042;47.318;19.874;2023-04-09T01:52:33;101073.87;;;1.83;100.00
62942;BME280;49042;47.318;19.874;2023-04-09T01:55:35;101067.59;;;1.79;100.00
62942;BME280;49042;47.318;19.874;2023-04-09T01:58:36;101072.06;;;1.81;100.00
62942;BME280;49042;47.318;19.874;2023-04-09T02:02:00;101063.06;;;1.87;100.00
62942;BME280;49042;47.318;19.874;2023-04-09T02:05:06;101070.03;;;2.46;100.00
62942;BME280;49042;47.318;19.874;2023-04-09T02:08:14;101067.87;;;2.41;100.00
62942;BME280;49042;47.318;19.874;2023-04-09T02:11:20;101073.59;;;2.37;100.00
62942;BME280;49042;47.318;19.874;2023-04-09T02:14:25;101071.63;;;2.10;100.00
62942;BME280;49042;47.318;19.874;2023-04-09T02:17:27;101068.22;;;2.45;100.00
62942;BME280;49042;47.318;19.874;2023-04-09T02:20:29;101075.75;;;2.66;100.00
62942;BME280;49042;47.318;19.874;2023-04-09T02:23:31;101073.06;;;2.06;100.00
62942;BME280;49042;47.318;19.874;2023-04-09T02:26:34;101061.03;;;2.29;100.00
62942;BME280;49042;47.318;19.874;2023-04-09T02:29:37;101069.72;;;2.07;100.00
62942;BME280;49042;47.318;19.874;2023-04-09T02:32:38;101065.56;;;2.09;100.00
62942;BME280;49042;47.318;19.874;2023-04-09T02:35:40;101062.91;;;2.08;100.00
62942;BME280;49042;47.318;19.874;2023-04-09T02:38:42;101058.75;;;2.10;100.00
62942;BME280;49042;47.318;19.874;2023-04-09T02:41:43;101065.47;;;2.08;100.00
62942;BME280;49042;47.318;19.874;2023-04-09T02:44:45;101058.28;;;2.03;100.00
62942;BME280;49042;47.318;19.874;2023-04-09T02:47:47;101060.66;;;2.12;100.00
62942;BME280;49042;47.318;19.874;2023-04-09T02:50:48;101057.28;;;2.01;100.00
62942;BME280;49042;47.318;19.874;2023-04-09T02:53:50;101064.75;;;1.98;100.00
62942;BME280;49042;47.318;19.874;2023-04-09T02:56:51;101056.16;;;1.98;100.00
62942;BME280;49042;47.318;19.874;2023-04-09T02:59:54;101059.53;;;2.09;100.00
62942;BME280;49042;47.318;19.874;2023-04-09T03:02:56;101044.88;;;2.08;100.00
62942;BME280;49042;47.318;19.874;2023-04-09T03:05:58;101051.34;;;2.02;100.00
62942;BME280;49042;47.318;19.874;2023-04-09T03:09:00;101053.72;;;2.11;100.00
62942;BME280;49042;47.318;19.874;2023-04-09T03:12:01;101052.25;;;2.03;100.00
62942;BME280;49042;47.318;19.874;2023-04-09T03:15:03;101051.69;;;2.07;100.00
62942;BME280;49042;47.318;19.874;2023-04-09T03:18:05;101048.38;;;2.20;100.00
62942;BME280;49042;47.318;19.874;2023-04-09T03:21:08;101053.25;;;2.05;100.00
62942;BME280;49042;47.318;19.874;2023-04-09T03:24:09;101050.22;;;1.99;100.00
62942;BME280;49042;47.318;19.874;2023-04-09T03:27:11;101053.81;;;2.01;100.00
62942;BME280;49042;47.318;19.874;2023-04-09T03:30:12;101053.50;;;2.08;100.00
62942;BME280;49042;47.318;19.874;2023-04-09T03:33:14;101053.16;;;2.16;100.00
62942;BME280;49042;47.318;19.874;2023-04-09T03:36:16;101052.97;;;2.24;100.00
62942;BME280;49042;47.318;19.874;2023-04-09T03:39:17;101045.91;;;2.22;100.00
62942;BME280;49042;47.318;19.874;2023-04-09T03:42:19;101053.19;;;2.28;100.00
62942;BME280;49042;47.318;19.874;2023-04-09T03:45:21;101052.53;;;2.30;100.00
62942;BME280;49042;47.318;19.874;2023-04-09T03:48:22;101054.63;;;2.24;100.00
62942;BME280;49042;47.318;19.874;2023-04-09T03:51:24;101055.22;;;2.32;100.00
62942;BME280;49042;47.318;19.874;2023-04-09T03:54:30;101057.91;;;2.33;100.00
62942;BME280;49042;47.318;19.874;2023-04-09T03:57:31;101058.34;;;2.28;100.00
62942;BME280;49042;47.318;19.874;2023-04-09T04:00:33;101059.56;;;2.21;100.00
62942;BME280;49042;47.318;19.874;2023-04-09T04:03:35;101073.34;;;2.21;100.00
62942;BME280;49042;47.318;19.874;2023-04-09T04:06:37;101067.41;;;2.22;100.00
62942;BME280;49042;47.318;19.874;2023-04-09T04:09:39;101059.12;;;2.27;100.00
62942;BME280;49042;47.318;19.874;2023-04-09T04:12:40;101063.25;;;2.24;100.00
62942;BME280;49042;47.318;19.874;2023-04-09T04:15:42;101072.69;;;2.36;100.00
62942;BME280;49042;47.318;19.874;2023-04-09T04:18:43;101068.19;;;2.33;100.00
62942;BME280;49042;47.318;19.874;2023-04-09T04:21:45;101072.25;;;2.42;100.00
62942;BME280;49042;47.318;19.874;2023-04-09T04:24:47;101076.75;;;2.56;100.00
62942;BME280;49042;47.318;19.874;2023-04-09T04:27:49;101082.69;;;2.67;100.00
62942;BME280;49042;47.318;19.874;2023-04-09T04:30:50;101071.81;;;2.48;100.00
62942;BME280;49042;47.318;19.874;2023-04-09T04:33:52;101079.88;;;2.52;100.00
62942;BME280;49042;47.318;19.874;2023-04-09T04:36:54;101077.06;;;2.49;100.00
62942;BME280;49042;47.318;19.874;2023-04-09T04:39:55;101078.06;;;2.51;100.00
62942;BME280;49042;47.318;19.874;2023-04-09T04:42:57;101081.69;;;2.53;100.00
62942;BME280;49042;47.318;19.874;2023-04-09T04:45:58;101077.44;;;2.54;100.00
62942;BME280;49042;47.318;19.874;2023-04-09T04:49:00;101085.81;;;2.63;100.00
62942;BME280;49042;47.318;19.874;2023-04-09T04:52:02;101081.66;;;2.65;100.00
62942;BME280;49042;47.318;19.874;2023-04-09T04:55:04;101075.84;;;2.56;100.00
62942;BME280;49042;47.318;19.874;2023-04-09T04:58:05;101086.38;;;2.59;100.00
62942;BME280;49042;47.318;19.874;2023-04-09T05:01:07;101083.94;;;2.61;100.00
62942;BME280;49042;47.318;19.874;2023-04-09T05:04:09;101085.16;;;2.66;100.00
62942;BME280;49042;47.318;19.874;2023-04-09T05:07:10;101086.72;;;2.76;100.00
62942;BME280;49042;47.318;19.874;2023-04-09T05:10:12;101092.00;;;2.77;100.00
62942;BME280;49042;47.318;19.874;2023-04-09T05:13:14;101099.72;;;2.77;100.00
62942;BME280;49042;47.318;19.874;2023-04-09T05:16:16;101098.06;;;2.78;100.00
62942;BME280;49042;47.318;19.874;2023-04-09T05:19:19;101098.16;;;2.80;100.00
62942;BME280;49042;47.318;19.874;2023-04-09T05:22:20;101100.06;;;3.06;100.00
62942;BME280;49042;47.318;19.874;2023-04-09T05:25:22;101105.31;;;3.08;100.00
62942;BME280;49042;47.318;19.874;2023-04-09T05:28:23;101105.44;;;3.09;100.00
62942;BME280;49042;47.318;19.874;2023-04-09T05:31:25;101100.84;;;3.05;100.00
62942;BME280;49042;47.318;19.874;2023-04-09T05:34:27;101111.63;;;2.99;100.00
62942;BME280;49042;47.318;19.874;2023-04-09T05:37:29;101111.72;;;3.13;100.00
62942;BME280;49042;47.318;19.874;2023-04-09T05:40:30;101103.97;;;3.13;100.00
62942;BME280;49042;47.318;19.874;2023-04-09T05:43:32;101111.94;;;3.28;100.00
62942;BME280;49042;47.318;19.874;2023-04-09T05:46:34;101110.81;;;3.25;100.00
62942;BME280;49042;47.318;19.874;2023-04-09T05:49:35;101116.50;;;3.32;100.00
62942;BME280;49042;47.318;19.874;2023-04-09T05:52:37;101115.50;;;3.30;100.00
62942;BME280;49042;47.318;19.874;2023-04-09T05:55:39;101125.91;;;3.44;100.00
62942;BME280;49042;47.318;19.874;2023-04-09T05:58:40;101118.37;;;3.47;100.00
62942;BME280;49042;47.318;19.874;2023-04-09T06:01:42;101120.53;;;3.53;100.00
62942;BME280;49042;47.318;19.874;2023-04-09T06:04:44;101124.44;;;3.48;100.00
62942;BME280;49042;47.318;19.874;2023-04-09T06:07:46;101120.81;;;3.70;100.00
62942;BME280;49042;47.318;19.874;2023-04-09T06:10:47;101124.66;;;3.63;100.00
62942;BME280;49042;47.318;19.874;2023-04-09T06:13:50;101129.09;;;3.78;100.00
62942;BME280;49042;47.318;19.874;2023-04-09T06:16:52;101136.78;;;3.90;100.00
62942;BME280;49042;47.318;19.874;2023-04-09T06:19:53;101134.06;;;3.74;100.00
62942;BME280;49042;47.318;19.874;2023-04-09T06:22:55;101133.47;;;4.04;100.00
62942;BME280;49042;47.318;19.874;2023-04-09T06:25:57;101133.53;;;4.18;100.00
62942;BME280;49042;47.318;19.874;2023-04-09T06:28:59;101127.88;;;4.49;100.00
62942;BME280;49042;47.318;19.874;2023-04-09T06:32:00;101132.78;;;4.58;100.00
62942;BME280;49042;47.318;19.874;2023-04-09T06:35:02;101133.06;;;4.24;100.00
62942;BME280;49042;47.318;19.874;2023-04-09T06:38:04;101136.06;;;4.30;100.00
62942;BME280;49042;47.318;19.874;2023-04-09T06:41:07;101133.13;;;4.37;100.00
62942;BME280;49042;47.318;19.874;2023-04-09T06:44:09;101134.00;;;5.18;100.00
62942;BME280;49042;47.318;19.874;2023-04-09T06:47:11;101133.78;;;5.42;100.00
62942;BME280;49042;47.318;19.874;2023-04-09T06:50:12;101130.72;;;6.06;100.00
62942;BME280;49042;47.318;19.874;2023-04-09T06:53:14;101137.34;;;6.45;100.00
62942;BME280;49042;47.318;19.874;2023-04-09T06:56:17;101137.28;;;6.89;100.00
62942;BME280;49042;47.318;19.874;2023-04-09T06:59:19;101140.72;;;7.20;100.00
62942;BME280;49042;47.318;19.874;2023-04-09T07:02:20;101140.16;;;7.57;100.00
62942;BME280;49042;47.318;19.874;2023-04-09T07:05:23;101135.78;;;8.40;96.17
62942;BME280;49042;47.318;19.874;2023-04-09T07:08:25;101136.06;;;8.98;89.65
62942;BME280;49042;47.318;19.874;2023-04-09T07:11:27;101139.38;;;9.51;86.11
62942;BME280;49042;47.318;19.874;2023-04-09T07:14:28;101138.06;;;11.03;80.74
62942;BME280;49042;47.318;19.874;2023-04-09T07:17:31;101146.66;;;11.45;75.44
62942;BME280;49042;47.318;19.874;2023-04-09T07:20:32;101144.47;;;11.33;73.32
62942;BME280;49042;47.318;19.874;2023-04-09T07:23:35;101152.25;;;11.55;73.22
62942;BME280;49042;47.318;19.874;2023-04-09T07:26:36;101151.22;;;11.74;73.05
62942;BME280;49042;47.318;19.874;2023-04-09T07:29:43;101159.28;;;11.81;71.37
62942;BME280;49042;47.318;19.874;2023-04-09T07:32:44;101158.16;;;11.28;72.40
62942;BME280;49042;47.318;19.874;2023-04-09T07:35:46;101153.66;;;11.23;73.04
62942;BME280;49042;47.318;19.874;2023-04-09T07:38:48;101161.97;;;11.82;68.95
62942;BME280;49042;47.318;19.874;2023-04-09T07:41:50;101159.09;;;11.51;66.44
62942;BME280;49042;47.318;19.874;2023-04-09T07:44:52;101167.16;;;11.57;69.08
62942;BME280;49042;47.318;19.874;2023-04-09T07:47:54;101165.53;;;11.38;68.14
62942;BME280;49042;47.318;19.874;2023-04-09T07:50:56;101159.75;;;11.93;67.86
62942;BME280;49042;47.318;19.874;2023-04-09T07:53:57;101157.34;;;16.06;50.50
62942;BME280;49042;47.318;19.874;2023-04-09T07:57:00;101164.53;;;15.30;47.81
62942;BME280;49042;47.318;19.874;2023-04-09T08:00:05;101170.22;;;15.92;45.23
62942;BME280;49042;47.318;19.874;2023-04-09T08:03:07;101168.13;;;15.35;45.00
62942;BME280;49042;47.318;19.874;2023-04-09T08:06:09;101167.72;;;16.44;43.95
62942;BME280;49042;47.318;19.874;2023-04-09T08:09:11;101166.53;;;17.32;42.43
62942;BME280;49042;47.318;19.874;2023-04-09T08:12:13;101170.88;;;20.67;36.65
62942;BME280;49042;47.318;19.874;2023-04-09T08:15:14;101171.78;;;22.91;32.74
62942;BME280;49042;47.318;19.874;2023-04-09T08:18:17;101171.97;;;22.63;31.10
62942;BME280;49042;47.318;19.874;2023-04-09T08:21:18;101176.53;;;16.46;39.87
62942;BME280;49042;47.318;19.874;2023-04-09T08:24:21;101174.25;;;17.85;38.32
62942;BME280;49042;47.318;19.874;2023-04-09T08:27:23;101175.13;;;20.01;34.93
62942;BME280;49042;47.318;19.874;2023-04-09T08:30:25;101173.31;;;14.61;46.97
62942;BME280;49042;47.318;19.874;2023-04-09T08:33:27;101175.78;;;14.54;47.22
62942;BME280;49042;47.318;19.874;2023-04-09T08:36:29;101188.31;;;11.19;58.01
62942;BME280;49042;47.318;19.874;2023-04-09T08:39:33;101177.03;;;14.02;52.49
62942;BME280;49042;47.318;19.874;2023-04-09T08:42:43;101176.25;;;14.39;49.63
62942;BME280;49042;47.318;19.874;2023-04-09T08:45:46;101167.28;;;13.12;52.65
62942;BME280;49042;47.318;19.874;2023-04-09T08:48:50;101171.63;;;12.08;55.55
62942;BME280;49042;47.318;19.874;2023-04-09T08:51:53;101177.97;;;10.38;66.01
62942;BME280;49042;47.318;19.874;2023-04-09T08:54:54;101179.41;;;12.06;60.00
62942;BME280;49042;47.318;19.874;2023-04-09T08:57:56;101170.00;;;12.61;56.95
62942;BME280;49042;47.318;19.874;2023-04-09T09:00:58;101182.09;;;12.57;55.58
62942;BME280;49042;47.318;19.874;2023-04-09T09:04:05;101183.03;;;14.00;49.68
62942;BME280;49042;47.318;19.874;2023-04-09T09:07:07;101178.22;;;12.72;53.38
62942;BME280;49042;47.318;19.874;2023-04-09T09:10:09;101180.78;;;10.63;63.04
62942;BME280;49042;47.318;19.874;2023-04-09T09:13:21;101181.88;;;14.53;48.12
62942;BME280;49042;47.318;19.874;2023-04-09T09:16:23;101184.09;;;14.05;47.29
62942;BME280;49042;47.318;19.874;2023-04-09T09:22:27;101191.31;;;15.15;45.62
62942;BME280;49042;47.318;19.874;2023-04-09T09:25:28;101178.06;;;16.84;40.18
62942;BME280;49042;47.318;19.874;2023-04-09T09:28:33;101180.59;;;20.66;34.42
62942;BME280;49042;47.318;19.874;2023-04-09T09:31:48;101184.59;;;17.66;37.22
62942;BME280;49042;47.318;19.874;2023-04-09T09:35:06;101184.84;;;16.69;40.31
62942;BME280;49042;47.318;19.874;2023-04-09T09:38:08;101185.97;;;13.80;46.84
62942;BME280;49042;47.318;19.874;2023-04-09T09:41:16;101184.56;;;18.38;39.57
62942;BME280;49042;47.318;19.874;2023-04-09T09:44:31;101182.16;;;19.95;34.94
62942;BME280;49042;47.318;19.874;2023-04-09T09:47:33;101183.88;;;16.16;39.65
62942;BME280;49042;47.318;19.874;2023-04-09T09:50:36;101192.59;;;13.67;44.34
62942;BME280;49042;47.318;19.874;2023-04-09T09:53:40;101186.47;;;13.97;46.24
62942;BME280;49042;47.318;19.874;2023-04-09T09:56:44;101178.56;;;14.61;43.10
62942;BME280;49042;47.318;19.874;2023-04-09T09:59:52;101176.22;;;14.72;45.53
62942;BME280;49042;47.318;19.874;2023-04-09T10:02:58;101176.91;;;14.30;47.22
62942;BME280;49042;47.318;19.874;2023-04-09T10:06:03;101178.84;;;15.45;43.35
62942;BME280;49042;47.318;19.874;2023-04-09T10:09:05;101179.84;;;15.13;44.18
62942;BME280;49042;47.318;19.874;2023-04-09T10:12:08;101173.38;;;15.35;43.26
62942;BME280;49042;47.318;19.874;2023-04-09T10:15:10;101177.22;;;15.50;42.73
62942;BME280;49042;47.318;19.874;2023-04-09T10:18:14;101166.84;;;14.48;44.61
62942;BME280;49042;47.318;19.874;2023-04-09T10:21:31;101167.06;;;14.90;45.50
62942;BME280;49042;47.318;19.874;2023-04-09T10:24:36;101161.69;;;15.62;44.94
62942;BME280;49042;47.318;19.874;2023-04-09T10:27:38;101159.37;;;15.77;45.27
62942;BME280;49042;47.318;19.874;2023-04-09T10:30:39;101160.34;;;14.67;46.95
62942;BME280;49042;47.318;19.874;2023-04-09T10:33:42;101155.69;;;14.55;46.70
62942;BME280;49042;47.318;19.874;2023-04-09T10:36:45;101165.47;;;15.74;45.82
62942;BME280;49042;47.318;19.874;2023-04-09T10:39:51;101161.22;;;13.13;46.92
62942;BME280;49042;47.318;19.874;2023-04-09T10:42:57;101163.75;;;12.31;49.43
62942;BME280;49042;47.318;19.874;2023-04-09T10:45:59;101159.50;;;13.13;51.29
62942;BME280;49042;47.318;19.874;2023-04-09T10:49:15;101160.19;;;12.55;48.69
62942;BME280;49042;47.318;19.874;2023-04-09T10:52:28;101164.69;;;11.85;51.40
62942;BME280;49042;47.318;19.874;2023-04-09T10:55:38;101153.41;;;13.42;48.56
62942;BME280;49042;47.318;19.874;2023-04-09T10:58:40;101154.06;;;13.64;48.58
62942;BME280;49042;47.318;19.874;2023-04-09T11:01:51;101158.09;;;13.54;48.06
62942;BME280;49042;47.318;19.874;2023-04-09T11:08:19;101158.38;;;12.03;50.45
62942;BME280;49042;47.318;19.874;2023-04-09T11:11:26;101154.03;;;12.04;47.80
62942;BME280;49042;47.318;19.874;2023-04-09T11:14:28;101152.69;;;11.66;51.55
62942;BME280;49042;47.318;19.874;2023-04-09T11:17:35;101145.41;;;12.06;51.55
62942;BME280;49042;47.318;19.874;2023-04-09T11:20:37;101143.59;;;12.28;50.39
62942;BME280;49042;47.318;19.874;2023-04-09T11:23:39;101145.31;;;12.79;48.02
62942;BME280;49042;47.318;19.874;2023-04-09T11:26:40;101140.84;;;13.32;45.45
62942;BME280;49042;47.318;19.874;2023-04-09T11:29:42;101142.37;;;13.54;47.90
62942;BME280;49042;47.318;19.874;2023-04-09T11:32:44;101141.28;;;12.90;46.53
62942;BME280;49042;47.318;19.874;2023-04-09T11:35:46;101134.66;;;13.00;47.48
62942;BME280;49042;47.318;19.874;2023-04-09T11:38:49;101140.81;;;13.02;48.64
62942;BME280;49042;47.318;19.874;2023-04-09T11:41:52;101143.78;;;11.85;50.90
62942;BME280;49042;47.318;19.874;2023-04-09T11:44:54;101141.87;;;11.33;51.98
62942;BME280;49042;47.318;19.874;2023-04-09T11:47:56;101139.25;;;11.33;52.96
62942;BME280;49042;47.318;19.874;2023-04-09T11:50:58;101138.97;;;11.96;51.40
62942;BME280;49042;47.318;19.874;2023-04-09T11:54:01;101144.22;;;11.73;51.52
62942;BME280;49042;47.318;19.874;2023-04-09T11:57:04;101131.72;;;12.38;49.73
62942;BME280;49042;47.318;19.874;2023-04-09T12:00:08;101132.34;;;13.11;46.96
62942;BME280;49042;47.318;19.874;2023-04-09T12:03:10;101136.66;;;12.29;49.94
62942;BME280;49042;47.318;19.874;2023-04-09T12:06:12;101137.06;;;13.80;48.91
62942;BME280;49042;47.318;19.874;2023-04-09T12:09:14;101140.19;;;13.99;47.29
62942;BME280;49042;47.318;19.874;2023-04-09T12:12:22;101136.50;;;14.23;45.41
62942;BME280;49042;47.318;19.874;2023-04-09T12:15:24;101122.88;;;14.05;48.17
62942;BME280;49042;47.318;19.874;2023-04-09T12:18:26;101128.69;;;13.34;44.81
62942;BME280;49042;47.318;19.874;2023-04-09T12:24:45;101136.66;;;14.99;41.85
62942;BME280;49042;47.318;19.874;2023-04-09T12:27:47;101133.56;;;15.58;39.75
62942;BME280;49042;47.318;19.874;2023-04-09T12:30:49;101127.94;;;13.98;43.24
62942;BME280;49042;47.318;19.874;2023-04-09T12:33:51;101125.44;;;12.85;44.47
62942;BME280;49042;47.318;19.874;2023-04-09T12:36:52;101118.97;;;12.74;45.05
62942;BME280;49042;47.318;19.874;2023-04-09T12:39:54;101127.22;;;11.85;49.78
62942;BME280;49042;47.318;19.874;2023-04-09T12:42:56;101125.06;;;12.47;48.11
62942;BME280;49042;47.318;19.874;2023-04-09T12:45:58;101125.47;;;12.59;48.25
62942;BME280;49042;47.318;19.874;2023-04-09T12:49:00;101117.94;;;11.93;51.21
62942;BME280;49042;47.318;19.874;2023-04-09T12:52:01;101117.41;;;12.53;51.12
62942;BME280;49042;47.318;19.874;2023-04-09T12:55:04;101116.69;;;13.13;47.13
62942;BME280;49042;47.318;19.874;2023-04-09T12:58:06;101118.03;;;13.58;48.55
62942;BME280;49042;47.318;19.874;2023-04-09T13:01:08;101113.38;;;12.91;50.08
62942;BME280;49042;47.318;19.874;2023-04-09T13:04:10;101113.12;;;13.40;49.47
62942;BME280;49042;47.318;19.874;2023-04-09T13:07:14;101107.87;;;12.04;51.41
62942;BME280;49042;47.318;19.874;2023-04-09T13:10:16;101104.97;;;12.73;50.24
62942;BME280;49042;47.318;19.874;2023-04-09T13:13:18;101108.91;;;12.34;49.45
62942;BME280;49042;47.318;19.874;2023-04-09T13:16:19;101108.97;;;12.11;50.38
62942;BME280;49042;47.318;19.874;2023-04-09T13:19:21;101102.97;;;12.14;49.53
62942;BME280;49042;47.318;19.874;2023-04-09T13:22:23;101102.41;;;11.73;51.67
62942;BME280;49042;47.318;19.874;2023-04-09T13:25:24;101111.81;;;11.45;52.27
62942;BME280;49042;47.318;19.874;2023-04-09T13:28:26;101108.34;;;11.44;53.25
62942;BME280;49042;47.318;19.874;2023-04-09T13:31:28;101109.66;;;11.34;53.42
62942;BME280;49042;47.318;19.874;2023-04-09T13:34:30;101102.47;;;11.27;52.90
62942;BME280;49042;47.318;19.874;2023-04-09T13:37:31;101104.28;;;11.30;53.77
62942;BME280;49042;47.318;19.874;2023-04-09T13:40:33;101096.34;;;11.74;52.94
62942;BME280;49042;47.318;19.874;2023-04-09T13:43:35;101098.88;;;12.20;50.39
62942;BME280;49042;47.318;19.874;2023-04-09T13:46:36;101097.31;;;11.76;49.71
62942;BME280;49042;47.318;19.874;2023-04-09T13:49:39;101100.75;;;12.00;49.22
62942;BME280;49042;47.318;19.874;2023-04-09T13:52:41;101099.44;;;11.87;49.41
62942;BME280;49042;47.318;19.874;2023-04-09T13:55:42;101104.97;;;11.49;50.59
62942;BME280;49042;47.318;19.874;2023-04-09T13:58:44;101107.66;;;11.04;51.54
62942;BME280;49042;47.318;19.874;2023-04-09T14:01:47;101099.00;;;11.28;51.37
62942;BME280;49042;47.318;19.874;2023-04-09T14:04:49;101099.03;;;11.53;52.26
62942;BME280;49042;47.318;19.874;2023-04-09T14:07:50;101100.03;;;11.80;51.31
62942;BME280;49042;47.318;19.874;2023-04-09T14:10:52;101093.09;;;12.05;50.40
62942;BME280;49042;47.318;19.874;2023-04-09T14:13:54;101094.00;;;12.31;50.69
62942;BME280;49042;47.318;19.874;2023-04-09T14:16:56;101091.84;;;12.19;50.50
62942;BME280;49042;47.318;19.874;2023-04-09T14:19:58;101097.63;;;11.61;49.82
62942;BME280;49042;47.318;19.874;2023-04-09T14:22:59;101093.31;;;12.13;51.29
62942;BME280;49042;47.318;19.874;2023-04-09T14:26:01;101091.56;;;11.62;52.94
62942;BME280;49042;47.318;19.874;2023-04-09T14:29:03;101090.41;;;11.78;53.12
62942;BME280;49042;47.318;19.874;2023-04-09T14:32:05;101079.25;;;11.60;54.79
62942;BME280;49042;47.318;19.874;2023-04-09T14:35:08;101082.38;;;11.74;54.16
62942;BME280;49042;47.318;19.874;2023-04-09T14:38:10;101086.28;;;11.61;53.50
62942;BME280;49042;47.318;19.874;2023-04-09T14:41:11;101090.03;;;11.44;54.19
62942;BME280;49042;47.318;19.874;2023-04-09T14:44:13;101081.37;;;11.22;54.58
62942;BME280;49042;47.318;19.874;2023-04-09T14:47:15;101076.44;;;11.07;54.63
62942;BME280;49042;47.318;19.874;2023-04-09T14:50:17;101084.87;;;10.78;54.88
62942;BME280;49042;47.318;19.874;2023-04-09T14:53:18;101080.06;;;11.11;54.73
62942;BME280;49042;47.318;19.874;2023-04-09T14:56:20;101085.06;;;10.83;57.45
62942;BME280;49042;47.318;19.874;2023-04-09T14:59:22;101073.31;;;10.71;57.21
62942;BME280;49042;47.318;19.874;2023-04-09T15:02:23;101077.47;;;10.66;56.79
62942;BME280;49042;47.318;19.874;2023-04-09T15:05:26;101077.06;;;10.78;58.16
62942;BME280;49042;47.318;19.874;2023-04-09T15:08:27;101085.97;;;10.84;58.49
62942;BME280;49042;47.318;19.874;2023-04-09T15:11:29;101077.81;;;10.76;57.75
62942;BME280;49042;47.318;19.874;2023-04-09T15:14:31;101077.00;;;10.77;57.90
62942;BME280;49042;47.318;19.874;2023-04-09T15:17:34;101077.59;;;10.69;59.14
62942;BME280;49042;47.318;19.874;2023-04-09T15:20:37;101080.56;;;10.57;57.90
62942;BME280;49042;47.318;19.874;2023-04-09T15:23:39;101076.25;;;10.58;56.76
62942;BME280;49042;47.318;19.874;2023-04-09T15:26:41;101068.06;;;10.50;57.90
62942;BME280;49042;47.318;19.874;2023-04-09T15:29:43;101068.47;;;10.38;58.31
62942;BME280;49042;47.318;19.874;2023-04-09T15:32:44;101074.03;;;10.26;58.20
62942;BME280;49042;47.318;19.874;2023-04-09T15:35:46;101072.09;;;10.22;59.57
62942;BME280;49042;47.318;19.874;2023-04-09T15:38:48;101074.72;;;10.22;59.14
62942;BME280;49042;47.318;19.874;2023-04-09T15:41:50;101063.78;;;10.09;58.02
62942;BME280;49042;47.318;19.874;2023-04-09T15:44:51;101068.31;;;10.13;58.08
62942;BME280;49042;47.318;19.874;2023-04-09T15:47:53;101067.63;;;9.98;58.45
62942;BME280;49042;47.318;19.874;2023-04-09T15:50:55;101067.44;;;9.93;58.36
62942;BME280;49042;47.318;19.874;2023-04-09T15:53:57;101068.19;;;9.90;59.87
62942;BME280;49042;47.318;19.874;2023-04-09T15:56:59;101070.78;;;9.90;60.78
62942;BME280;49042;47.318;19.874;2023-04-09T16:00:01;101074.22;;;9.89;61.14
62942;BME280;49042;47.318;19.874;2023-04-09T16:03:03;101069.69;;;9.85;60.57